默认 日期 大小 文件数 浏览量 最新下载 xml
thor 2011磁力链接相关资源由用户搜索指令自动获取,结果来源于网络,本站不存储任何资料,亦不承担任何责任,请于24小时内删除,搜索到996个磁力,用时13ms。
    {"RARBG.txt": 31, "Almighty.Thor.2011.1080p.BluRay.x264-HANDJOB.mkv": 7653476909}
创建时间: 2021-03-03 19:44:41 大小:7.13 GB 文件数量:2 热度:4 最近下载:2025-02-15 17:55:03
    {"Thor.2011.1080p.BDRip.DTS-ES.x264.HUN-AC3[wasq77].mkv": 6183628240, "Thor.2011.1080p.BDRip.DTS-ES.x264.HUN-AC3[wasq77].nfo": 5087}
创建时间: 2021-03-15 18:29:57 大小:5.76 GB 文件数量:2 热度:2 最近下载:2025-01-23 14:27:06
    ... ": 509, "Thor.2011.720p.BRRip.XviD.AC3-FLAWL3SS.avi": 3495622656, "Thor.2011.720p.BRRip ... .XviD.AC3-FLAWL3SS.nfo": 2499, "Thor.2011.720p.BRRip ... .AC3-FLAWL3SS.sample.avi": 23639716, "Thor.2011.720p.BRRip.XviD.AC3-FLAWL3SS ...
创建时间: 2021-03-23 01:02:04 大小:3.28 GB 文件数量:6 热度:2 最近下载:2025-03-02 14:09:02
    ... Thor.2011.BD.REMUX.h264.1080p.DTSHDMA.Mysilu.ts": 14788288868, "Almighty.Thor.2011 ... par2": 59684, "Almighty.Thor.2011.BD.REMUX.h264.1080p.DTSHDMA ... PAR2": 5051752, "Almighty.Thor.2011.BD.REMUX.h264.1080p. ... PAR2": 10103428, "Almighty.Thor.2011.BD.REMUX.h264.1080p. ...
创建时间: 2021-03-25 06:48:21 大小:13.8 GB 文件数量:5 热度:9 最近下载:2025-08-10 16:18:03
    {"Thor.2011.1080p.BluRay.DTS.x264-CtrlHD.mkv": 11671114754, "Thor.2011.1080p.BluRay.DTS.x264-CtrlHD.nfo": 1003}
创建时间: 2021-03-26 19:25:41 大小:10.87 GB 文件数量:2 热度:5 最近下载:2025-08-13 19:44:01
    {"Thor 2011 720p BluRay DTS-ES x264-DON.mkv": 6014539661, "Thor 2011 720p BluRay DTS-ES x264-DON.nfo": 6087}
创建时间: 2021-03-27 06:59:49 大小:5.6 GB 文件数量:2 热度:5 最近下载:2025-08-01 08:48:06
    {"Thor.2011.1080p-dual-lat.mp4": 1892302723, "thor.-2011.1080p-dual-lat_202103_meta.xml": 698, "thor.-2011.1080p-dual-lat_202103_meta.sqlite": 9216}
创建时间: 2021-04-01 17:44:09 大小:1.76 GB 文件数量:3 热度:1 最近下载:2025-01-19 01:51:06
    ... -Thor.2011.nfo": 7357, "Thor.2011.BluRay.1080p.DTS.x264-CHD.mkv": 10728989837, "Thor[1].2011 ...
创建时间: 2021-04-02 06:47:11 大小:10.09 GB 文件数量:7 热度:4 最近下载:2025-01-05 06:48:02
    {"Thor.2011.BluRay.720p.x264.DTS.MySilu.mkv": 5177495456, "Thor.2011.BluRay.720p.x264.DTS.MySilu.nfo": 3683, "Thor.2011.BluRay.720p.x264.DTS.MySilu.Sample.mkv": 68301345}
创建时间: 2021-04-02 12:14:23 大小:4.89 GB 文件数量:3 热度:2 最近下载:2025-01-04 14:53:03
    {"INFO.txt": 3794, "AgusiQ.gif": 285702, "AT KLiK.url": 125, "Legends.of.Valhalla.Thor.2011.PLDUB.480p.BRRip.XviD.AC3-J25.avi": 1345146880}
创建时间: 2021-04-02 17:41:37 大小:1.25 GB 文件数量:4 热度:1 最近下载:2025-01-27 03:37:06
    ... .AAC-[SnowDoN-IcTv].idx": 54616, "Thor.2011.720p.BRRip.x264.Hindi.AAC ... ).jpg": 105109, "Thumbs.jpg": 141743}, "Thor.2011.720p.BRRip.x264.Hindi.AAC ... -[SnowDoN-IcTv].mp4": 2122004466, "Thor.2011.720p.BRRip.x264.Hindi.AAC ...
创建时间: 2021-04-05 18:50:33 大小:2.01 GB 文件数量:13 热度:2 最近下载:2025-01-05 06:44:03
    ... Return of Thor (2011).jpg": 518479, "Thunderstorm - The Return of Thor (2011) 720p BluRay ... , "Sample Thunderstorm - The Return of Thor (2011) 720p BluRay x264 [Dual Audio ...
创建时间: 2021-04-12 02:51:34 大小:859.05 MB 文件数量:3 热度:1 最近下载:2025-02-16 18:06:02
    ... Torrent - Nitro TorrenT.URL": 254, "Thor 2011 [1080p.BluRay.H265.AC3.5 ... -NitroTeam] [Napisy PL].srt": 76920, "Thor 2011 [1080p.BluRay.H265.AC3.5 ... -NitroTeam] [Napisy ENG].srt": 78113, "Thor 2011 [1080p.BluRay.H265.AC3.5 ...
创建时间: 2021-04-13 23:57:39 大小:2.31 GB 文件数量:8 热度:1 最近下载:2025-01-22 18:04:03
    {"s7-thor.1080.nfo": 13727, "s7-thor.108011.smi": 87291, "Thor.2011.BRRip.XvidHD.720p-NPW.mkv": 8207563056, "Thor.2011.BRRip.XvidHD.720p-NPW.smi": 91533, "Thor.2011.1080p.BluRay.x264-SECTOR7.torrent": 41727}
创建时间: 2021-04-17 20:30:10 大小:7.64 GB 文件数量:5 热度:1 最近下载:2025-02-03 22:41:03
    ... -thor-2011-new-poster.jpg": 165741, "Thor.2011.TS.V2.x264.Feel-Free": 2804, "Thor.2011 ... .TS.V2.x264.Feel-Free.mp4": 975283053, "Thor.2011.TS.V2 ...
创建时间: 2021-04-21 04:26:38 大小:931.89 MB 文件数量:11 热度:2 最近下载:2025-02-09 11:21:03
    {"www.Torrenting.com.txt": 509, "Thor.2011.BRRip.Xvid.AC3-SiC.avi": 1286455302, "Thor.2011.BRRip.Xvid.AC3-SiC.nfo": 7015, "READ this before playing the Movie.txt": 509, "Thor.2011.BRRip.Xvid.AC3-SiC.Sample.avi": 16381404}
创建时间: 2021-05-01 07:07:37 大小:1.21 GB 文件数量:5 热度:2 最近下载:2025-02-27 23:20:02
    {"www.Torrenting.com.txt": 509, "Thor 2011 PPVRiP XviD - iLLUSiON.avi": 1285277696, "READ this before playing the Movie.txt": 509}
创建时间: 2021-05-01 09:51:09 大小:1.2 GB 文件数量:3 热度:4 最近下载:2025-01-09 14:57:03
    ... .txt": 77, "Thor.2011.TS.XviD-ViSiON.avi": 1585737728, "Thor.2011.TS.XviD-ViSiON ...
创建时间: 2021-05-01 14:14:27 大小:1.49 GB 文件数量:9 热度:2 最近下载:2025-01-04 22:16:05
    {"Sample.avi": 15013888, "www.Speed.Cd.txt": 47, "Speed.cd read me .txt": 47, "Thor 2011 PPVRiP XviD - iLLUSiON.avi": 1285277696}
创建时间: 2021-05-02 04:56:40 大小:1.21 GB 文件数量:4 热度:2 最近下载:2025-01-06 19:21:03
    ... 语.导评4语.Thor.2011.1080p.3D.BluRay.x264-3D ...
创建时间: 2021-05-09 18:02:02 大小:17.89 GB 文件数量:7 热度:132 最近下载:2025-09-18 23:45:05